OIAH  Gachsaran  Airport

Gachsaran, Iran

Add Bookmark
ICAO OIAH
Type Airport
Status Operational
Latitude
30° 20' 15" N
30.337601
Longitude
50° 49' 40" E
50.827999
Local (DST + 5) UTC (GMT + 4)
May 27, 2015 06:03 May 27, 2015 01:33
Sunrise-Sunset Local UTC
Begin Civil Twilight 05:38 01:08
Sunrise 06:05 01:35
Sunset 08:02 15:32
End Civil Twilight 08:29 15:59
VFR
VFR
MVFR
MVFR
IFR
VFR
LIFR
VFR
Unknown
Unavailable

Current Weather

METAR Observed VFR
OIAH 261400Z 26010KT CAVOK 34/M02 Q1010 Tue, May 26, 2015 @ 14:00 UTC
(11 Hours, 33 Minutes ago)
Visual Flight Rules
Wind Visibility Conditions
260° at 10 knots (19 kph) 10 km or more
  • No significant weather
Temperatures Readings Precipitation
Current Temp
34°C
93°F
Dewpoint
-2°C
28°F
Humidity 10%
Altimeter 29.82" Hg
Sea Level Pressure 1,010 mb
Field Elevation
738 m
2,421 ft
None Recorded

Additional weather within a 92.6km radius of OIAH

Map ICAO Location
OISY 79.6km E/NE (059°)
VFR
VFR
MVFR
MVFR
IFR
VFR
LIFR
VFR
Unknown
Unavailable
-
-

CheckWX.com is intended as a tool to help pilots better visualize weather data. It is not intended as a substitute for an official weather briefing obtained from a Flight Service Station. CheckWX.com does not meet the FAA requirements for an official pre-flight weather briefing. Therefore, it's important that pilots still call and obtain an official FSS pre-flight weather briefing.

© 2007-2015 CheckWX.com
01:33:46 UTC